sensor_id;sensor_type;location;lat;lon;timestamp;temperature;humidity
25718;DHT22;13574;52.040;5.692;2023-07-09T00:02:26;28.40;91.80
25718;DHT22;13574;52.040;5.692;2023-07-09T00:04:54;28.40;91.90
25718;DHT22;13574;52.040;5.692;2023-07-09T00:07:31;28.30;92.00
25718;DHT22;13574;52.040;5.692;2023-07-09T00:10:02;28.40;92.00
25718;DHT22;13574;52.040;5.692;2023-07-09T00:12:33;28.30;92.10
25718;DHT22;13574;52.040;5.692;2023-07-09T00:14:59;28.20;92.20
25718;DHT22;13574;52.040;5.692;2023-07-09T00:17:33;28.30;92.30
25718;DHT22;13574;52.040;5.692;2023-07-09T00:20:10;28.20;92.30
25718;DHT22;13574;52.040;5.692;2023-07-09T00:22:43;28.20;92.20
25718;DHT22;13574;52.040;5.692;2023-07-09T00:25:14;28.20;92.30
25718;DHT22;13574;52.040;5.692;2023-07-09T00:27:42;28.20;92.40
25718;DHT22;13574;52.040;5.692;2023-07-09T00:30:23;28.20;92.50
25718;DHT22;13574;52.040;5.692;2023-07-09T00:32:50;28.00;92.50
25718;DHT22;13574;52.040;5.692;2023-07-09T00:35:18;28.00;92.50
25718;DHT22;13574;52.040;5.692;2023-07-09T00:37:45;28.10;92.50
25718;DHT22;13574;52.040;5.692;2023-07-09T00:40:19;28.10;92.50
25718;DHT22;13574;52.040;5.692;2023-07-09T00:42:46;28.10;92.40
25718;DHT22;13574;52.040;5.692;2023-07-09T00:45:21;28.10;92.40
25718;DHT22;13574;52.040;5.692;2023-07-09T00:50:44;28.10;92.50
25718;DHT22;13574;52.040;5.692;2023-07-09T00:53:27;28.10;92.40
25718;DHT22;13574;52.040;5.692;2023-07-09T00:55:59;28.10;92.30
25718;DHT22;13574;52.040;5.692;2023-07-09T00:58:28;28.10;92.30
25718;DHT22;13574;52.040;5.692;2023-07-09T01:00:56;28.20;92.00
25718;DHT22;13574;52.040;5.692;2023-07-09T01:03:51;28.30;92.00
25718;DHT22;13574;52.040;5.692;2023-07-09T01:06:23;28.30;91.90
25718;DHT22;13574;52.040;5.692;2023-07-09T01:08:51;28.40;92.00
25718;DHT22;13574;52.040;5.692;2023-07-09T01:11:20;28.40;92.00
25718;DHT22;13574;52.040;5.692;2023-07-09T01:13:51;28.40;92.00
25718;DHT22;13574;52.040;5.692;2023-07-09T01:16:19;28.40;92.00
25718;DHT22;13574;52.040;5.692;2023-07-09T01:18:49;28.40;92.10
25718;DHT22;13574;52.040;5.692;2023-07-09T01:21:15;28.40;92.10
25718;DHT22;13574;52.040;5.692;2023-07-09T01:23:46;28.50;91.90
25718;DHT22;13574;52.040;5.692;2023-07-09T01:26:18;28.50;91.90
25718;DHT22;13574;52.040;5.692;2023-07-09T01:28:47;28.40;91.70
25718;DHT22;13574;52.040;5.692;2023-07-09T01:31:15;28.40;91.80
25718;DHT22;13574;52.040;5.692;2023-07-09T01:33:42;28.50;91.80
25718;DHT22;13574;52.040;5.692;2023-07-09T01:36:16;28.50;91.80
25718;DHT22;13574;52.040;5.692;2023-07-09T01:38:47;28.50;91.90
25718;DHT22;13574;52.040;5.692;2023-07-09T01:41:15;28.50;92.20
25718;DHT22;13574;52.040;5.692;2023-07-09T01:43:44;28.50;92.10
25718;DHT22;13574;52.040;5.692;2023-07-09T01:46:11;28.50;92.10
25718;DHT22;13574;52.040;5.692;2023-07-09T01:48:40;28.40;92.10
25718;DHT22;13574;52.040;5.692;2023-07-09T01:51:18;28.40;92.10
25718;DHT22;13574;52.040;5.692;2023-07-09T01:53:45;28.40;92.00
25718;DHT22;13574;52.040;5.692;2023-07-09T01:56:20;28.40;92.00
25718;DHT22;13574;52.040;5.692;2023-07-09T01:58:48;28.30;91.60
25718;DHT22;13574;52.040;5.692;2023-07-09T02:01:14;28.30;91.60
25718;DHT22;13574;52.040;5.692;2023-07-09T02:03:42;28.30;91.70
25718;DHT22;13574;52.040;5.692;2023-07-09T02:06:13;28.30;91.70
25718;DHT22;13574;52.040;5.692;2023-07-09T02:08:41;28.30;91.70
25718;DHT22;13574;52.040;5.692;2023-07-09T02:11:07;28.30;91.70
25718;DHT22;13574;52.040;5.692;2023-07-09T02:13:32;28.30;91.50
25718;DHT22;13574;52.040;5.692;2023-07-09T02:16:00;28.20;91.40
25718;DHT22;13574;52.040;5.692;2023-07-09T02:18:28;28.30;91.50
25718;DHT22;13574;52.040;5.692;2023-07-09T02:20:54;28.20;91.50
25718;DHT22;13574;52.040;5.692;2023-07-09T02:23:20;28.30;91.60
25718;DHT22;13574;52.040;5.692;2023-07-09T02:25:58;28.20;91.70
25718;DHT22;13574;52.040;5.692;2023-07-09T02:28:35;28.20;91.70
25718;DHT22;13574;52.040;5.692;2023-07-09T02:31:04;28.20;91.60
25718;DHT22;13574;52.040;5.692;2023-07-09T02:33:39;28.20;91.60
25718;DHT22;13574;52.040;5.692;2023-07-09T02:36:08;28.20;91.60
25718;DHT22;13574;52.040;5.692;2023-07-09T02:38:36;28.20;91.70
25718;DHT22;13574;52.040;5.692;2023-07-09T02:41:04;28.20;91.60
25718;DHT22;13574;52.040;5.692;2023-07-09T02:43:34;28.20;91.50
25718;DHT22;13574;52.040;5.692;2023-07-09T02:46:05;28.10;91.60
25718;DHT22;13574;52.040;5.692;2023-07-09T02:48:38;28.10;91.60
25718;DHT22;13574;52.040;5.692;2023-07-09T02:51:04;28.20;91.80
25718;DHT22;13574;52.040;5.692;2023-07-09T02:53:29;28.10;91.80
25718;DHT22;13574;52.040;5.692;2023-07-09T02:55:55;28.20;91.80
25718;DHT22;13574;52.040;5.692;2023-07-09T02:58:21;28.20;92.30
25718;DHT22;13574;52.040;5.692;2023-07-09T03:00:55;28.10;91.90
25718;DHT22;13574;52.040;5.692;2023-07-09T03:03:26;28.10;91.80
25718;DHT22;13574;52.040;5.692;2023-07-09T03:05:54;28.10;91.80
25718;DHT22;13574;52.040;5.692;2023-07-09T03:08:20;28.20;91.90
25718;DHT22;13574;52.040;5.692;2023-07-09T03:10:48;28.20;92.30
25718;DHT22;13574;52.040;5.692;2023-07-09T03:13:16;28.20;91.90
25718;DHT22;13574;52.040;5.692;2023-07-09T03:15:53;28.20;91.90
25718;DHT22;13574;52.040;5.692;2023-07-09T03:18:19;28.20;92.00
25718;DHT22;13574;52.040;5.692;2023-07-09T03:20:47;28.20;92.00
25718;DHT22;13574;52.040;5.692;2023-07-09T03:23:12;28.10;91.80
25718;DHT22;13574;52.040;5.692;2023-07-09T03:25:44;28.20;91.90
25718;DHT22;13574;52.040;5.692;2023-07-09T03:28:11;28.20;91.90
25718;DHT22;13574;52.040;5.692;2023-07-09T03:30:41;28.20;91.80
25718;DHT22;13574;52.040;5.692;2023-07-09T03:33:14;28.20;91.80
25718;DHT22;13574;52.040;5.692;2023-07-09T03:35:40;28.20;91.80
25718;DHT22;13574;52.040;5.692;2023-07-09T03:38:07;28.20;91.90
25718;DHT22;13574;52.040;5.692;2023-07-09T03:40:36;28.10;91.90
25718;DHT22;13574;52.040;5.692;2023-07-09T03:43:03;28.10;91.80
25718;DHT22;13574;52.040;5.692;2023-07-09T03:45:30;28.10;91.80
25718;DHT22;13574;52.040;5.692;2023-07-09T03:47:56;28.20;91.90
25718;DHT22;13574;52.040;5.692;2023-07-09T03:50:22;28.20;92.00
25718;DHT22;13574;52.040;5.692;2023-07-09T03:52:50;28.20;92.10
25718;DHT22;13574;52.040;5.692;2023-07-09T03:55:18;28.20;92.30
25718;DHT22;13574;52.040;5.692;2023-07-09T03:57:46;28.20;92.40
25718;DHT22;13574;52.040;5.692;2023-07-09T04:00:20;28.30;92.30
25718;DHT22;13574;52.040;5.692;2023-07-09T04:02:49;28.20;92.20
25718;DHT22;13574;52.040;5.692;2023-07-09T04:05:25;28.20;92.30
25718;DHT22;13574;52.040;5.692;2023-07-09T04:07:52;28.30;92.30
25718;DHT22;13574;52.040;5.692;2023-07-09T04:10:18;28.30;92.30
25718;DHT22;13574;52.040;5.692;2023-07-09T04:12:44;28.30;92.30
25718;DHT22;13574;52.040;5.692;2023-07-09T04:15:11;28.30;92.30
25718;DHT22;13574;52.040;5.692;2023-07-09T04:17:42;28.30;92.30
25718;DHT22;13574;52.040;5.692;2023-07-09T04:20:09;28.40;92.40
25718;DHT22;13574;52.040;5.692;2023-07-09T04:22:36;28.40;92.40
25718;DHT22;13574;52.040;5.692;2023-07-09T04:25:06;28.40;92.30
25718;DHT22;13574;52.040;5.692;2023-07-09T04:27:38;28.50;92.40
25718;DHT22;13574;52.040;5.692;2023-07-09T04:30:09;28.50;92.50
25718;DHT22;13574;52.040;5.692;2023-07-09T04:32:38;28.50;92.60
25718;DHT22;13574;52.040;5.692;2023-07-09T04:35:04;28.50;92.60
25718;DHT22;13574;52.040;5.692;2023-07-09T04:37:35;28.60;92.50
25718;DHT22;13574;52.040;5.692;2023-07-09T04:40:01;28.50;92.80
25718;DHT22;13574;52.040;5.692;2023-07-09T04:42:29;28.40;92.50
25718;DHT22;13574;52.040;5.692;2023-07-09T04:44:55;27.90;92.80
25718;DHT22;13574;52.040;5.692;2023-07-09T04:47:20;27.90;93.20
25718;DHT22;13574;52.040;5.692;2023-07-09T04:49:46;28.10;93.10
25718;DHT22;13574;52.040;5.692;2023-07-09T04:52:19;28.10;92.90
25718;DHT22;13574;52.040;5.692;2023-07-09T04:54:50;28.10;92.80
25718;DHT22;13574;52.040;5.692;2023-07-09T04:57:19;28.10;93.00
25718;DHT22;13574;52.040;5.692;2023-07-09T04:59:45;28.00;93.20
25718;DHT22;13574;52.040;5.692;2023-07-09T05:02:11;28.00;93.30
25718;DHT22;13574;52.040;5.692;2023-07-09T05:04:36;27.90;93.30
25718;DHT22;13574;52.040;5.692;2023-07-09T05:07:02;28.00;93.20
25718;DHT22;13574;52.040;5.692;2023-07-09T05:09:28;28.00;93.20
25718;DHT22;13574;52.040;5.692;2023-07-09T05:11:54;28.00;93.30
25718;DHT22;13574;52.040;5.692;2023-07-09T05:14:19;28.00;93.30
25718;DHT22;13574;52.040;5.692;2023-07-09T05:16:45;28.00;93.80
25718;DHT22;13574;52.040;5.692;2023-07-09T05:19:11;28.00;93.60
25718;DHT22;13574;52.040;5.692;2023-07-09T05:21:37;28.00;93.60
25718;DHT22;13574;52.040;5.692;2023-07-09T05:24:03;27.90;93.90
25718;DHT22;13574;52.040;5.692;2023-07-09T05:26:29;28.00;93.90
25718;DHT22;13574;52.040;5.692;2023-07-09T05:28:54;28.00;94.00
25718;DHT22;13574;52.040;5.692;2023-07-09T05:31:22;28.10;94.00
25718;DHT22;13574;52.040;5.692;2023-07-09T05:33:47;28.20;94.00
25718;DHT22;13574;52.040;5.692;2023-07-09T05:36:13;28.30;93.80
25718;DHT22;13574;52.040;5.692;2023-07-09T05:38:44;28.40;93.90
25718;DHT22;13574;52.040;5.692;2023-07-09T05:41:12;28.60;93.80
25718;DHT22;13574;52.040;5.692;2023-07-09T05:43:39;28.80;93.80
25718;DHT22;13574;52.040;5.692;2023-07-09T05:46:06;29.00;93.60
25718;DHT22;13574;52.040;5.692;2023-07-09T05:48:31;29.20;93.40
25718;DHT22;13574;52.040;5.692;2023-07-09T05:50:57;29.30;93.50
25718;DHT22;13574;52.040;5.692;2023-07-09T05:53:23;29.40;93.30
25718;DHT22;13574;52.040;5.692;2023-07-09T05:55:52;29.50;93.20
25718;DHT22;13574;52.040;5.692;2023-07-09T05:58:18;29.80;93.10
25718;DHT22;13574;52.040;5.692;2023-07-09T06:00:43;30.10;93.10
25718;DHT22;13574;52.040;5.692;2023-07-09T06:03:09;30.20;93.10
25718;DHT22;13574;52.040;5.692;2023-07-09T06:05:35;30.40;92.90
25718;DHT22;13574;52.040;5.692;2023-07-09T06:08:03;30.60;92.90
25718;DHT22;13574;52.040;5.692;2023-07-09T06:10:28;30.70;92.50
25718;DHT22;13574;52.040;5.692;2023-07-09T06:12:55;30.90;92.60
25718;DHT22;13574;52.040;5.692;2023-07-09T06:15:24;31.30;92.40
25718;DHT22;13574;52.040;5.692;2023-07-09T06:17:50;32.10;91.80
25718;DHT22;13574;52.040;5.692;2023-07-09T06:20:16;32.70;90.60
25718;DHT22;13574;52.040;5.692;2023-07-09T06:22:41;33.10;90.30
25718;DHT22;13574;52.040;5.692;2023-07-09T06:25:07;33.50;89.80
25718;DHT22;13574;52.040;5.692;2023-07-09T06:27:33;33.70;89.60
25718;DHT22;13574;52.040;5.692;2023-07-09T06:29:59;33.80;89.60
25718;DHT22;13574;52.040;5.692;2023-07-09T06:32:24;33.80;89.70
25718;DHT22;13574;52.040;5.692;2023-07-09T06:34:50;33.80;89.50
25718;DHT22;13574;52.040;5.692;2023-07-09T06:37:16;33.80;89.60
25718;DHT22;13574;52.040;5.692;2023-07-09T06:39:41;33.70;89.70
25718;DHT22;13574;52.040;5.692;2023-07-09T06:42:07;33.60;88.00
25718;DHT22;13574;52.040;5.692;2023-07-09T06:44:33;33.60;86.90
25718;DHT22;13574;52.040;5.692;2023-07-09T06:46:58;33.40;86.50
25718;DHT22;13574;52.040;5.692;2023-07-09T06:49:24;33.60;86.90
25718;DHT22;13574;52.040;5.692;2023-07-09T06:51:50;34.00;87.20
25718;DHT22;13574;52.040;5.692;2023-07-09T06:54:15;34.50;86.40
25718;DHT22;13574;52.040;5.692;2023-07-09T06:56:41;35.40;85.10
25718;DHT22;13574;52.040;5.692;2023-07-09T06:59:07;35.90;83.50
25718;DHT22;13574;52.040;5.692;2023-07-09T07:01:33;36.40;81.60
25718;DHT22;13574;52.040;5.692;2023-07-09T07:03:58;37.50;79.70
25718;DHT22;13574;52.040;5.692;2023-07-09T07:06:24;38.70;77.30
25718;DHT22;13574;52.040;5.692;2023-07-09T07:08:50;39.70;76.10
25718;DHT22;13574;52.040;5.692;2023-07-09T07:11:15;40.10;74.70
25718;DHT22;13574;52.040;5.692;2023-07-09T07:13:42;40.00;74.00
25718;DHT22;13574;52.040;5.692;2023-07-09T07:16:10;40.40;73.70
25718;DHT22;13574;52.040;5.692;2023-07-09T07:18:36;41.60;72.30
25718;DHT22;13574;52.040;5.692;2023-07-09T07:21:02;42.90;69.40
25718;DHT22;13574;52.040;5.692;2023-07-09T07:23:29;44.10;66.80
25718;DHT22;13574;52.040;5.692;2023-07-09T07:25:54;44.90;65.30
25718;DHT22;13574;52.040;5.692;2023-07-09T07:28:21;45.90;64.30
25718;DHT22;13574;52.040;5.692;2023-07-09T07:30:47;47.00;62.30
25718;DHT22;13574;52.040;5.692;2023-07-09T07:33:22;47.80;60.90
25718;DHT22;13574;52.040;5.692;2023-07-09T07:35:48;48.60;59.00
25718;DHT22;13574;52.040;5.692;2023-07-09T07:38:13;49.10;58.80
25718;DHT22;13574;52.040;5.692;2023-07-09T07:40:44;48.90;57.30
25718;DHT22;13574;52.040;5.692;2023-07-09T07:43:10;49.50;58.70
25718;DHT22;13574;52.040;5.692;2023-07-09T07:45:36;50.10;57.90
25718;DHT22;13574;52.040;5.692;2023-07-09T07:48:05;50.60;55.50
25718;DHT22;13574;52.040;5.692;2023-07-09T07:50:31;50.90;56.70
25718;DHT22;13574;52.040;5.692;2023-07-09T07:52:56;51.30;56.20
25718;DHT22;13574;52.040;5.692;2023-07-09T07:55:22;51.70;56.00
25718;DHT22;13574;52.040;5.692;2023-07-09T07:57:48;51.90;55.10
25718;DHT22;13574;52.040;5.692;2023-07-09T08:00:14;52.10;55.10
25718;DHT22;13574;52.040;5.692;2023-07-09T08:02:40;52.40;55.00
25718;DHT22;13574;52.040;5.692;2023-07-09T08:05:06;52.40;52.70
25718;DHT22;13574;52.040;5.692;2023-07-09T08:07:31;51.70;52.80
25718;DHT22;13574;52.040;5.692;2023-07-09T08:09:57;51.50;54.70
25718;DHT22;13574;52.040;5.692;2023-07-09T08:12:23;51.20;55.50
25718;DHT22;13574;52.040;5.692;2023-07-09T08:14:48;51.60;54.70
25718;DHT22;13574;52.040;5.692;2023-07-09T08:17:14;51.90;55.30
25718;DHT22;13574;52.040;5.692;2023-07-09T08:19:52;52.10;54.50
25718;DHT22;13574;52.040;5.692;2023-07-09T08:22:18;52.50;53.10
25718;DHT22;13574;52.040;5.692;2023-07-09T08:24:52;52.20;53.00
25718;DHT22;13574;52.040;5.692;2023-07-09T08:27:19;52.10;53.90
25718;DHT22;13574;52.040;5.692;2023-07-09T08:29:45;52.00;53.40
25718;DHT22;13574;52.040;5.692;2023-07-09T08:32:11;51.90;52.60
25718;DHT22;13574;52.040;5.692;2023-07-09T08:34:39;51.60;51.90
25718;DHT22;13574;52.040;5.692;2023-07-09T08:37:06;51.10;52.30
25718;DHT22;13574;52.040;5.692;2023-07-09T08:39:31;50.80;54.00
25718;DHT22;13574;52.040;5.692;2023-07-09T08:42:04;50.70;53.90
25718;DHT22;13574;52.040;5.692;2023-07-09T08:50:27;50.30;55.20
25718;DHT22;13574;52.040;5.692;2023-07-09T08:52:56;50.50;54.80
25718;DHT22;13574;52.040;5.692;2023-07-09T08:55:27;50.80;54.00
25718;DHT22;13574;52.040;5.692;2023-07-09T08:58:17;50.80;53.20
25718;DHT22;13574;52.040;5.692;2023-07-09T09:00:55;50.50;54.90
25718;DHT22;13574;52.040;5.692;2023-07-09T09:03:44;50.50;53.80
25718;DHT22;13574;52.040;5.692;2023-07-09T09:06:19;49.90;52.80
25718;DHT22;13574;52.040;5.692;2023-07-09T09:14:18;49.50;54.40
25718;DHT22;13574;52.040;5.692;2023-07-09T09:16:46;49.70;53.60
25718;DHT22;13574;52.040;5.692;2023-07-09T09:19:37;49.60;53.80
25718;DHT22;13574;52.040;5.692;2023-07-09T09:22:12;48.90;54.10
25718;DHT22;13574;52.040;5.692;2023-07-09T09:27:42;50.00;53.80
25718;DHT22;13574;52.040;5.692;2023-07-09T09:30:21;49.60;54.00
25718;DHT22;13574;52.040;5.692;2023-07-09T09:35:26;51.00;54.30
25718;DHT22;13574;52.040;5.692;2023-07-09T09:37:54;51.80;53.30
25718;DHT22;13574;52.040;5.692;2023-07-09T09:40:22;52.70;52.80
25718;DHT22;13574;52.040;5.692;2023-07-09T09:42:49;52.90;51.50
25718;DHT22;13574;52.040;5.692;2023-07-09T09:45:20;52.60;51.90
25718;DHT22;13574;52.040;5.692;2023-07-09T09:47:47;52.50;51.30
25718;DHT22;13574;52.040;5.692;2023-07-09T09:50:18;51.80;51.50
25718;DHT22;13574;52.040;5.692;2023-07-09T09:52:46;51.70;52.80
25718;DHT22;13574;52.040;5.692;2023-07-09T09:55:20;51.10;51.40
25718;DHT22;13574;52.040;5.692;2023-07-09T09:57:49;50.80;52.00
25718;DHT22;13574;52.040;5.692;2023-07-09T10:00:16;50.80;53.60
25718;DHT22;13574;52.040;5.692;2023-07-09T10:02:42;50.80;52.00
25718;DHT22;13574;52.040;5.692;2023-07-09T10:05:15;51.70;52.20
25718;DHT22;13574;52.040;5.692;2023-07-09T10:15:00;54.20;51.00
25718;DHT22;13574;52.040;5.692;2023-07-09T10:23:13;52.40;50.20
25718;DHT22;13574;52.040;5.692;2023-07-09T10:25:55;50.20;52.30
25718;DHT22;13574;52.040;5.692;2023-07-09T10:28:37;49.40;53.60
25718;DHT22;13574;52.040;5.692;2023-07-09T10:31:07;49.50;53.60
25718;DHT22;13574;52.040;5.692;2023-07-09T10:39:38;49.00;53.60
25718;DHT22;13574;52.040;5.692;2023-07-09T10:42:14;47.80;54.30
25718;DHT22;13574;52.040;5.692;2023-07-09T10:44:42;48.30;55.10
25718;DHT22;13574;52.040;5.692;2023-07-09T10:47:25;48.70;53.80
25718;DHT22;13574;52.040;5.692;2023-07-09T10:49:52;49.00;53.60
25718;DHT22;13574;52.040;5.692;2023-07-09T10:52:26;49.40;53.90
25718;DHT22;13574;52.040;5.692;2023-07-09T10:55:09;50.10;54.00
25718;DHT22;13574;52.040;5.692;2023-07-09T10:58:03;50.40;53.20
25718;DHT22;13574;52.040;5.692;2023-07-09T11:00:36;51.60;52.60
25718;DHT22;13574;52.040;5.692;2023-07-09T11:03:11;52.30;51.90
25718;DHT22;13574;52.040;5.692;2023-07-09T11:05:39;52.20;51.60
25718;DHT22;13574;52.040;5.692;2023-07-09T11:08:17;52.00;51.50
25718;DHT22;13574;52.040;5.692;2023-07-09T11:10:54;50.80;51.80
25718;DHT22;13574;52.040;5.692;2023-07-09T11:13:50;49.30;53.80
25718;DHT22;13574;52.040;5.692;2023-07-09T11:16:24;49.00;54.40
25718;DHT22;13574;52.040;5.692;2023-07-09T11:18:56;48.20;54.50
25718;DHT22;13574;52.040;5.692;2023-07-09T11:21:23;47.70;54.70
25718;DHT22;13574;52.040;5.692;2023-07-09T11:23:51;47.40;55.80
25718;DHT22;13574;52.040;5.692;2023-07-09T11:26:25;46.80;54.50
25718;DHT22;13574;52.040;5.692;2023-07-09T11:29:06;46.40;55.50
25718;DHT22;13574;52.040;5.692;2023-07-09T11:31:40;46.00;56.50
25718;DHT22;13574;52.040;5.692;2023-07-09T11:34:09;45.30;57.50
25718;DHT22;13574;52.040;5.692;2023-07-09T11:42:01;42.40;59.00
25718;DHT22;13574;52.040;5.692;2023-07-09T11:44:29;41.60;62.10
25718;DHT22;13574;52.040;5.692;2023-07-09T11:47:27;41.30;61.60
25718;DHT22;13574;52.040;5.692;2023-07-09T11:52:35;40.80;62.60
25718;DHT22;13574;52.040;5.692;2023-07-09T11:57:56;40.50;63.10
25718;DHT22;13574;52.040;5.692;2023-07-09T12:00:22;40.50;64.10
25718;DHT22;13574;52.040;5.692;2023-07-09T12:02:49;40.30;63.60
25718;DHT22;13574;52.040;5.692;2023-07-09T12:05:20;40.00;64.50
25718;DHT22;13574;52.040;5.692;2023-07-09T12:07:46;39.90;64.00
25718;DHT22;13574;52.040;5.692;2023-07-09T12:10:24;39.90;64.30
25718;DHT22;13574;52.040;5.692;2023-07-09T12:12:59;40.00;63.70
25718;DHT22;13574;52.040;5.692;2023-07-09T12:15:27;40.10;63.00
25718;DHT22;13574;52.040;5.692;2023-07-09T12:18:02;40.10;63.30
25718;DHT22;13574;52.040;5.692;2023-07-09T12:20:33;40.20;63.60
25718;DHT22;13574;52.040;5.692;2023-07-09T12:23:00;40.20;63.80
25718;DHT22;13574;52.040;5.692;2023-07-09T12:25:29;40.10;64.30
25718;DHT22;13574;52.040;5.692;2023-07-09T12:27:57;40.10;64.20
25718;DHT22;13574;52.040;5.692;2023-07-09T12:30:27;40.10;64.60
25718;DHT22;13574;52.040;5.692;2023-07-09T12:32:55;39.90;64.00
25718;DHT22;13574;52.040;5.692;2023-07-09T12:35:21;39.90;66.00
25718;DHT22;13574;52.040;5.692;2023-07-09T12:37:48;39.90;65.80
25718;DHT22;13574;52.040;5.692;2023-07-09T12:40:22;39.90;66.90
25718;DHT22;13574;52.040;5.692;2023-07-09T12:42:52;39.90;66.10
25718;DHT22;13574;52.040;5.692;2023-07-09T12:45:35;39.90;65.80
25718;DHT22;13574;52.040;5.692;2023-07-09T12:48:04;39.90;66.50
25718;DHT22;13574;52.040;5.692;2023-07-09T12:50:33;39.70;67.50
25718;DHT22;13574;52.040;5.692;2023-07-09T12:53:00;39.40;68.30
25718;DHT22;13574;52.040;5.692;2023-07-09T12:55:28;39.50;67.50
25718;DHT22;13574;52.040;5.692;2023-07-09T12:58:10;39.50;67.80
25718;DHT22;13574;52.040;5.692;2023-07-09T13:00:50;39.50;69.30
25718;DHT22;13574;52.040;5.692;2023-07-09T13:03:19;39.20;68.30
25718;DHT22;13574;52.040;5.692;2023-07-09T13:06:00;39.00;68.50
25718;DHT22;13574;52.040;5.692;2023-07-09T13:08:28;38.90;68.30
25718;DHT22;13574;52.040;5.692;2023-07-09T13:10:57;39.10;68.90
25718;DHT22;13574;52.040;5.692;2023-07-09T13:13:25;39.20;69.00
25718;DHT22;13574;52.040;5.692;2023-07-09T13:15:56;39.20;69.30
25718;DHT22;13574;52.040;5.692;2023-07-09T13:18:24;38.90;68.90
25718;DHT22;13574;52.040;5.692;2023-07-09T13:20:51;38.90;69.10
25718;DHT22;13574;52.040;5.692;2023-07-09T13:23:25;38.90;68.90
25718;DHT22;13574;52.040;5.692;2023-07-09T13:25:51;38.80;69.90
25718;DHT22;13574;52.040;5.692;2023-07-09T13:28:28;38.60;72.40
25718;DHT22;13574;52.040;5.692;2023-07-09T13:31:16;38.50;73.70
25718;DHT22;13574;52.040;5.692;2023-07-09T13:34:04;38.50;74.20
25718;DHT22;13574;52.040;5.692;2023-07-09T13:36:33;38.40;75.20
25718;DHT22;13574;52.040;5.692;2023-07-09T13:39:09;38.10;75.90
25718;DHT22;13574;52.040;5.692;2023-07-09T13:41:36;37.10;74.90
25718;DHT22;13574;52.040;5.692;2023-07-09T13:44:12;37.00;75.40
25718;DHT22;13574;52.040;5.692;2023-07-09T13:46:38;36.70;75.70
25718;DHT22;13574;52.040;5.692;2023-07-09T13:49:09;36.00;76.50
25718;DHT22;13574;52.040;5.692;2023-07-09T13:51:35;35.90;77.90
25718;DHT22;13574;52.040;5.692;2023-07-09T13:54:05;35.60;76.70
25718;DHT22;13574;52.040;5.692;2023-07-09T13:56:34;35.40;76.80
25718;DHT22;13574;52.040;5.692;2023-07-09T13:59:00;35.50;76.50
25718;DHT22;13574;52.040;5.692;2023-07-09T14:01:25;35.30;76.90
25718;DHT22;13574;52.040;5.692;2023-07-09T14:03:54;35.20;76.90
25718;DHT22;13574;52.040;5.692;2023-07-09T14:06:20;35.00;77.50
25718;DHT22;13574;52.040;5.692;2023-07-09T14:08:48;34.70;77.50
25718;DHT22;13574;52.040;5.692;2023-07-09T14:11:16;34.60;78.00
25718;DHT22;13574;52.040;5.692;2023-07-09T14:13:48;34.10;78.70
25718;DHT22;13574;52.040;5.692;2023-07-09T14:16:14;33.60;78.80
25718;DHT22;13574;52.040;5.692;2023-07-09T14:18:43;33.60;79.30
25718;DHT22;13574;52.040;5.692;2023-07-09T14:21:20;33.60;79.80
25718;DHT22;13574;52.040;5.692;2023-07-09T14:23:49;33.40;79.40
25718;DHT22;13574;52.040;5.692;2023-07-09T14:26:17;33.20;78.80
25718;DHT22;13574;52.040;5.692;2023-07-09T14:28:47;33.10;79.10
25718;DHT22;13574;52.040;5.692;2023-07-09T14:31:23;32.90;78.90
25718;DHT22;13574;52.040;5.692;2023-07-09T14:33:51;32.80;79.30
25718;DHT22;13574;52.040;5.692;2023-07-09T14:36:24;32.90;78.70
25718;DHT22;13574;52.040;5.692;2023-07-09T14:38:52;32.80;78.70
25718;DHT22;13574;52.040;5.692;2023-07-09T14:41:26;32.60;80.10
25718;DHT22;13574;52.040;5.692;2023-07-09T14:43:54;32.50;79.50
25718;DHT22;13574;52.040;5.692;2023-07-09T14:46:25;32.70;80.40
25718;DHT22;13574;52.040;5.692;2023-07-09T14:48:54;32.70;80.30
25718;DHT22;13574;52.040;5.692;2023-07-09T14:51:22;32.70;80.20
25718;DHT22;13574;52.040;5.692;2023-07-09T14:53:48;32.50;81.60
25718;DHT22;13574;52.040;5.692;2023-07-09T14:56:16;31.90;82.50
25718;DHT22;13574;52.040;5.692;2023-07-09T14:58:42;31.20;85.90
25718;DHT22;13574;52.040;5.692;2023-07-09T15:01:15;30.40;89.00
25718;DHT22;13574;52.040;5.692;2023-07-09T15:03:48;29.60;91.90
25718;DHT22;13574;52.040;5.692;2023-07-09T15:06:25;28.70;94.40
25718;DHT22;13574;52.040;5.692;2023-07-09T15:08:51;28.40;95.20
25718;DHT22;13574;52.040;5.692;2023-07-09T15:13:55;28.00;96.50
25718;DHT22;13574;52.040;5.692;2023-07-09T15:16:26;28.20;97.30
25718;DHT22;13574;52.040;5.692;2023-07-09T15:18:51;27.80;97.60
25718;DHT22;13574;52.040;5.692;2023-07-09T15:21:28;27.90;99.50
25718;DHT22;13574;52.040;5.692;2023-07-09T15:23:57;28.00;98.90
25718;DHT22;13574;52.040;5.692;2023-07-09T15:26:23;28.10;99.70
25718;DHT22;13574;52.040;5.692;2023-07-09T15:29:00;28.20;99.90
25718;DHT22;13574;52.040;5.692;2023-07-09T15:31:28;28.20;99.90
25718;DHT22;13574;52.040;5.692;2023-07-09T15:34:03;28.30;99.90
25718;DHT22;13574;52.040;5.692;2023-07-09T15:36:29;28.50;99.90
25718;DHT22;13574;52.040;5.692;2023-07-09T15:39:00;28.80;99.90
25718;DHT22;13574;52.040;5.692;2023-07-09T15:41:39;28.90;99.90
25718;DHT22;13574;52.040;5.692;2023-07-09T15:44:17;28.70;99.90
25718;DHT22;13574;52.040;5.692;2023-07-09T15:46:53;29.00;99.90
25718;DHT22;13574;52.040;5.692;2023-07-09T15:49:28;29.30;99.90
25718;DHT22;13574;52.040;5.692;2023-07-09T15:52:04;29.20;99.90
25718;DHT22;13574;52.040;5.692;2023-07-09T15:54:32;29.20;99.90
25718;DHT22;13574;52.040;5.692;2023-07-09T15:56:58;29.00;99.80
25718;DHT22;13574;52.040;5.692;2023-07-09T15:59:29;28.70;99.90
25718;DHT22;13574;52.040;5.692;2023-07-09T16:01:58;28.60;99.90
25718;DHT22;13574;52.040;5.692;2023-07-09T16:04:25;28.30;99.90
25718;DHT22;13574;52.040;5.692;2023-07-09T16:06:54;28.30;99.90
25718;DHT22;13574;52.040;5.692;2023-07-09T16:09:25;28.40;99.90
25718;DHT22;13574;52.040;5.692;2023-07-09T16:11:56;28.60;99.90
25718;DHT22;13574;52.040;5.692;2023-07-09T16:14:28;28.70;99.90
25718;DHT22;13574;52.040;5.692;2023-07-09T16:17:02;28.80;99.90
25718;DHT22;13574;52.040;5.692;2023-07-09T16:19:35;28.90;99.90
25718;DHT22;13574;52.040;5.692;2023-07-09T16:22:27;28.80;99.90
25718;DHT22;13574;52.040;5.692;2023-07-09T16:25:25;28.40;99.90
25718;DHT22;13574;52.040;5.692;2023-07-09T16:28:18;28.30;99.90
25718;DHT22;13574;52.040;5.692;2023-07-09T16:30:48;28.30;99.90
25718;DHT22;13574;52.040;5.692;2023-07-09T16:33:26;27.70;99.90
25718;DHT22;13574;52.040;5.692;2023-07-09T16:35:56;27.80;99.90
25718;DHT22;13574;52.040;5.692;2023-07-09T16:38:21;27.80;99.90
25718;DHT22;13574;52.040;5.692;2023-07-09T16:41:05;27.80;99.90